createdAt,value
2024-01-18T00:00:35.628Z,-4.48
2024-01-18T00:03:03.939Z,-4.45
2024-01-18T00:05:30.880Z,-4.50
2024-01-18T00:07:57.911Z,-4.55
2024-01-18T00:10:28.402Z,-4.61
2024-01-18T00:12:55.945Z,-4.61
2024-01-18T00:15:23.424Z,-4.63
2024-01-18T00:17:50.870Z,-4.67
2024-01-18T00:20:18.072Z,-4.70
2024-01-18T00:22:45.059Z,-4.74
2024-01-18T00:25:12.112Z,-4.75
2024-01-18T00:27:39.125Z,-4.69
2024-01-18T00:30:06.706Z,-4.77
2024-01-18T00:32:33.948Z,-4.83
2024-01-18T00:35:01.069Z,-4.91
2024-01-18T00:37:28.131Z,-4.96
2024-01-18T00:39:55.121Z,-4.99
2024-01-18T00:42:22.319Z,-4.99
2024-01-18T00:44:49.412Z,-4.99
2024-01-18T00:47:16.651Z,-5.04
2024-01-18T00:49:44.994Z,-5.06
2024-01-18T00:52:12.128Z,-5.14
2024-01-18T00:54:39.142Z,-5.19
2024-01-18T00:57:06.360Z,-5.22
2024-01-18T00:59:33.698Z,-5.19
2024-01-18T01:02:00.695Z,-5.12
2024-01-18T01:04:27.584Z,-5.14
2024-01-18T01:06:54.632Z,-5.20
2024-01-18T01:09:21.665Z,-5.25
2024-01-18T01:11:48.559Z,-5.27
2024-01-18T01:14:15.618Z,-5.30
2024-01-18T01:16:42.667Z,-5.33
2024-01-18T01:19:09.663Z,-5.34
2024-01-18T01:21:38.377Z,-5.35
2024-01-18T01:24:05.449Z,-5.34
2024-01-18T01:26:32.476Z,-5.32
2024-01-18T01:28:59.483Z,-5.20
2024-01-18T01:31:26.678Z,-5.13
2024-01-18T01:33:53.761Z,-5.09
2024-01-18T01:36:20.901Z,-5.08
2024-01-18T01:38:47.973Z,-5.15
2024-01-18T01:41:15.332Z,-5.18
2024-01-18T01:44:01.719Z,-5.18
2024-01-18T01:46:29.699Z,-5.29
2024-01-18T01:49:02.509Z,-5.24
2024-01-18T01:51:38.359Z,-5.21
2024-01-18T01:54:06.381Z,-5.25
2024-01-18T01:56:35.957Z,-5.26
2024-01-18T01:59:05.000Z,-5.28
2024-01-18T02:01:32.235Z,-5.33
2024-01-18T02:03:59.526Z,-5.38
2024-01-18T02:06:27.042Z,-5.38
2024-01-18T02:08:54.157Z,-5.40
2024-01-18T02:11:21.671Z,-5.39
2024-01-18T02:13:50.111Z,-5.39
2024-01-18T02:16:17.395Z,-5.41
2024-01-18T02:18:44.401Z,-5.43
2024-01-18T02:21:11.664Z,-5.30
2024-01-18T02:23:40.175Z,-5.21
2024-01-18T02:26:07.428Z,-5.22
2024-01-18T02:28:34.349Z,-5.31
2024-01-18T02:31:01.569Z,-5.38
2024-01-18T02:33:28.760Z,-5.40
2024-01-18T02:35:56.002Z,-5.42
2024-01-18T02:38:23.656Z,-5.45
2024-01-18T02:40:50.649Z,-5.48
2024-01-18T02:43:17.632Z,-5.54
2024-01-18T02:45:44.837Z,-5.55
2024-01-18T02:48:11.992Z,-5.55
2024-01-18T02:50:43.168Z,-5.52
2024-01-18T02:53:09.975Z,-5.43
2024-01-18T02:55:36.914Z,-5.49
2024-01-18T02:58:04.127Z,-5.49
2024-01-18T03:00:31.149Z,-5.51
2024-01-18T03:02:58.168Z,-5.52
2024-01-18T03:05:25.203Z,-5.53
2024-01-18T03:07:52.203Z,-5.53
2024-01-18T03:10:19.188Z,-5.56
2024-01-18T03:12:46.168Z,-5.59
2024-01-18T03:15:13.491Z,-5.57
2024-01-18T03:17:40.569Z,-5.55
2024-01-18T03:20:08.694Z,-5.56
2024-01-18T03:22:38.662Z,-5.51
2024-01-18T03:25:06.239Z,-5.49
2024-01-18T03:27:33.324Z,-5.41
2024-01-18T03:30:00.552Z,-5.39
2024-01-18T03:32:27.659Z,-5.41
2024-01-18T03:34:54.745Z,-5.43
2024-01-18T03:37:21.768Z,-5.43
2024-01-18T03:39:48.780Z,-5.49
2024-01-18T03:42:15.800Z,-5.51
2024-01-18T03:44:42.756Z,-5.54
2024-01-18T03:47:09.720Z,-5.55
2024-01-18T03:49:36.871Z,-5.58
2024-01-18T03:52:03.963Z,-5.60
2024-01-18T03:54:31.005Z,-5.65
2024-01-18T03:56:58.132Z,-5.69
2024-01-18T03:59:25.408Z,-5.65
2024-01-18T04:01:52.293Z,-5.70
2024-01-18T04:04:19.378Z,-5.75
2024-01-18T04:06:46.467Z,-5.81
2024-01-18T04:09:13.531Z,-5.87
2024-01-18T04:11:40.607Z,-5.94
2024-01-18T04:14:07.628Z,-5.98
2024-01-18T04:16:35.551Z,-5.99
2024-01-18T04:19:02.704Z,-6.06
2024-01-18T04:21:30.272Z,-6.11
2024-01-18T04:23:57.549Z,-6.15
2024-01-18T04:26:26.295Z,-6.13
2024-01-18T04:28:53.765Z,-6.11
2024-01-18T04:31:20.694Z,-6.11
2024-01-18T04:33:48.484Z,-6.16
2024-01-18T04:36:15.495Z,-6.21
2024-01-18T04:38:42.913Z,-6.25
2024-01-18T04:41:09.966Z,-6.20
2024-01-18T04:43:36.959Z,-6.23
2024-01-18T04:46:05.505Z,-6.28
2024-01-18T04:48:33.078Z,-6.33
2024-01-18T04:51:00.255Z,-6.36
2024-01-18T04:53:27.278Z,-6.35
2024-01-18T04:55:55.066Z,-6.29
2024-01-18T04:58:22.791Z,-6.24
2024-01-18T05:00:49.823Z,-6.22
2024-01-18T05:03:17.083Z,-6.19
2024-01-18T05:05:44.193Z,-6.19
2024-01-18T05:08:11.166Z,-6.20
2024-01-18T05:10:38.114Z,-6.22
2024-01-18T05:13:05.353Z,-6.25
2024-01-18T05:15:32.422Z,-6.28
2024-01-18T05:18:02.114Z,-6.34
2024-01-18T05:20:29.469Z,-6.32
2024-01-18T05:22:56.485Z,-6.25
2024-01-18T05:25:23.460Z,-6.10
2024-01-18T05:27:50.654Z,-5.97
2024-01-18T05:30:17.698Z,-5.85
2024-01-18T05:32:45.030Z,-5.72
2024-01-18T05:35:11.964Z,-5.56
2024-01-18T05:37:38.850Z,-5.41
2024-01-18T05:40:08.062Z,-5.23
2024-01-18T05:42:35.025Z,-5.11
2024-01-18T05:45:02.436Z,-5.00
2024-01-18T05:47:29.675Z,-4.91
2024-01-18T05:49:57.215Z,-4.83
2024-01-18T05:52:24.220Z,-4.73
2024-01-18T05:54:51.193Z,-4.64
2024-01-18T05:57:18.064Z,-4.51
2024-01-18T05:59:44.977Z,-4.43
2024-01-18T06:02:11.967Z,-4.32
2024-01-18T06:04:39.022Z,-4.21
2024-01-18T06:07:06.164Z,-4.20
2024-01-18T06:09:33.335Z,-4.05
2024-01-18T06:12:00.409Z,-3.99
2024-01-18T06:14:27.421Z,-3.89
2024-01-18T06:16:54.563Z,-3.84
2024-01-18T06:19:21.674Z,-3.79
2024-01-18T06:21:48.782Z,-3.72
2024-01-18T06:24:16.202Z,-3.69
2024-01-18T06:26:43.256Z,-3.66
2024-01-18T06:29:11.745Z,-3.63
2024-01-18T06:31:39.053Z,-3.57
2024-01-18T06:34:06.594Z,-3.52
2024-01-18T06:36:33.699Z,-3.51
2024-01-18T06:39:01.341Z,-3.50
2024-01-18T06:41:28.377Z,-3.50
2024-01-18T06:43:55.505Z,-3.50
2024-01-18T06:46:23.886Z,-3.50
2024-01-18T06:48:58.589Z,-3.53
2024-01-18T06:51:25.824Z,-3.57
2024-01-18T06:53:53.094Z,-3.60
2024-01-18T06:56:20.016Z,-3.65
2024-01-18T06:58:47.059Z,-3.70
2024-01-18T07:01:14.545Z,-3.82
2024-01-18T07:03:43.957Z,-3.88
2024-01-18T07:06:11.349Z,-4.00
2024-01-18T07:08:38.833Z,-4.08
2024-01-18T07:11:06.253Z,-4.19
2024-01-18T07:13:33.381Z,-4.28
2024-01-18T07:16:00.687Z,-4.36
2024-01-18T07:18:28.267Z,-4.46
2024-01-18T07:20:55.474Z,-4.57
2024-01-18T07:23:22.558Z,-4.66
2024-01-18T07:25:49.655Z,-4.75
2024-01-18T07:28:16.683Z,-4.83
2024-01-18T07:30:43.960Z,-4.87
2024-01-18T07:33:11.194Z,-4.91
2024-01-18T07:35:38.418Z,-4.95
2024-01-18T07:38:05.732Z,-4.95
2024-01-18T07:40:32.716Z,-4.94
2024-01-18T07:42:59.755Z,-4.94
2024-01-18T07:45:27.072Z,-4.94
2024-01-18T07:47:54.872Z,-4.96
2024-01-18T07:50:33.573Z,-4.97
2024-01-18T07:53:03.584Z,-5.04
2024-01-18T07:55:30.861Z,-5.07
2024-01-18T07:57:58.140Z,-5.10
2024-01-18T08:00:25.926Z,-5.17
2024-01-18T08:02:53.014Z,-5.23
2024-01-18T08:05:20.063Z,-5.34
2024-01-18T08:07:47.054Z,-5.40
2024-01-18T08:10:14.104Z,-5.47
2024-01-18T08:12:46.567Z,-5.45
2024-01-18T08:15:14.476Z,-5.52
2024-01-18T08:17:45.164Z,-5.57
2024-01-18T08:20:16.023Z,-5.64
2024-01-18T08:22:43.584Z,-5.58
2024-01-18T08:25:14.102Z,-5.66
2024-01-18T08:27:43.415Z,-5.63
2024-01-18T08:30:11.707Z,-5.61
2024-01-18T08:32:38.999Z,-5.63
2024-01-18T08:35:09.615Z,-5.62
2024-01-18T08:37:37.524Z,-5.65
2024-01-18T08:40:05.246Z,-5.68
2024-01-18T08:42:32.372Z,-5.64
2024-01-18T08:44:59.392Z,-5.63
2024-01-18T08:47:28.115Z,-5.62
2024-01-18T08:49:55.441Z,-5.59
2024-01-18T08:52:24.077Z,-5.56
2024-01-18T08:54:53.139Z,-5.54
2024-01-18T08:57:20.904Z,-5.61
2024-01-18T08:59:48.011Z,-5.60
2024-01-18T09:02:23.047Z,-5.56
2024-01-18T09:04:52.277Z,-5.58
2024-01-18T09:07:19.975Z,-5.38
2024-01-18T09:09:47.478Z,-5.08
2024-01-18T09:12:14.990Z,-4.75
2024-01-18T09:14:42.082Z,-4.55
2024-01-18T09:17:11.491Z,-4.35
2024-01-18T09:19:40.223Z,-4.17
2024-01-18T09:22:07.401Z,-4.05
2024-01-18T09:24:34.552Z,-3.97
2024-01-18T09:27:01.572Z,-3.84
2024-01-18T09:29:28.568Z,-3.66
2024-01-18T09:31:58.377Z,-3.48
2024-01-18T09:34:25.452Z,-3.32
2024-01-18T09:36:52.746Z,-3.13
2024-01-18T09:39:19.990Z,-2.99
2024-01-18T09:41:54.528Z,-2.79
2024-01-18T09:44:27.228Z,-2.61
2024-01-18T09:46:55.780Z,-2.46
2024-01-18T09:49:23.046Z,-2.33
2024-01-18T09:51:51.922Z,-2.15
2024-01-18T09:54:19.673Z,-2.00
2024-01-18T09:56:47.744Z,-1.82
2024-01-18T09:59:18.201Z,-1.66
2024-01-18T10:01:46.412Z,-1.53
2024-01-18T10:04:14.977Z,-1.39
2024-01-18T10:06:42.984Z,-1.25
2024-01-18T10:09:12.110Z,-1.09
2024-01-18T10:11:39.125Z,-0.92
2024-01-18T10:14:06.063Z,-0.74
2024-01-18T10:16:37.362Z,-0.55
2024-01-18T10:19:05.325Z,-0.32
2024-01-18T10:21:37.570Z,-0.17
2024-01-18T10:24:05.186Z,-0.06
2024-01-18T10:26:33.049Z,0.06
2024-01-18T10:29:02.001Z,0.18
2024-01-18T10:31:32.797Z,0.28
2024-01-18T10:34:00.179Z,0.39
2024-01-18T10:36:27.630Z,0.51
2024-01-18T10:38:55.093Z,0.63
2024-01-18T10:41:22.236Z,0.69
2024-01-18T10:43:49.896Z,0.81
2024-01-18T10:46:18.539Z,0.88
2024-01-18T10:48:47.739Z,0.97
2024-01-18T10:51:15.323Z,1.05
2024-01-18T10:53:44.889Z,1.15
2024-01-18T10:56:13.770Z,1.27
2024-01-18T10:58:42.624Z,1.37
2024-01-18T11:01:09.853Z,1.45
2024-01-18T11:03:38.250Z,1.53
2024-01-18T11:06:11.348Z,1.56
2024-01-18T11:08:41.534Z,1.66
2024-01-18T11:11:09.424Z,1.75
2024-01-18T11:13:36.927Z,1.78
2024-01-18T11:16:05.502Z,1.90
2024-01-18T11:18:35.754Z,1.92
2024-01-18T11:21:07.990Z,1.99
2024-01-18T11:23:37.007Z,2.04
2024-01-18T11:26:06.163Z,2.11
2024-01-18T11:28:34.190Z,2.24
2024-01-18T11:31:01.968Z,2.35
2024-01-18T11:33:29.796Z,2.43
2024-01-18T11:36:01.738Z,2.51
2024-01-18T11:38:31.138Z,2.60
2024-01-18T11:40:59.020Z,2.64
2024-01-18T11:43:46.265Z,2.73
2024-01-18T11:46:15.511Z,2.80
2024-01-18T11:48:44.174Z,2.86
2024-01-18T11:51:11.465Z,2.90
2024-01-18T11:53:39.402Z,3.02
2024-01-18T11:56:08.461Z,3.11
2024-01-18T11:58:35.506Z,3.16
2024-01-18T12:01:02.716Z,3.27
2024-01-18T12:03:30.032Z,3.36
2024-01-18T12:05:57.051Z,3.42
2024-01-18T12:08:24.256Z,3.49
2024-01-18T12:10:51.501Z,3.53
2024-01-18T12:13:19.257Z,3.61
2024-01-18T12:15:47.386Z,3.66
2024-01-18T12:18:14.614Z,3.71
2024-01-18T12:20:43.273Z,3.77
2024-01-18T12:23:17.283Z,3.82
2024-01-18T12:25:45.642Z,3.89
2024-01-18T12:28:12.723Z,3.84
2024-01-18T12:30:44.814Z,3.95
2024-01-18T12:33:14.088Z,3.97
2024-01-18T12:35:41.176Z,4.06
2024-01-18T12:38:08.527Z,4.12
2024-01-18T12:40:35.886Z,4.26
2024-01-18T12:43:04.361Z,4.36
2024-01-18T12:45:34.873Z,4.44
2024-01-18T12:48:03.916Z,4.55
2024-01-18T12:50:30.933Z,4.60
2024-01-18T12:52:59.548Z,4.58
2024-01-18T12:55:28.400Z,4.59
2024-01-18T12:57:59.497Z,4.58
2024-01-18T13:00:26.599Z,4.63
2024-01-18T13:02:53.859Z,4.71
2024-01-18T13:05:20.861Z,4.74
2024-01-18T13:07:50.007Z,4.86
2024-01-18T13:10:17.051Z,4.87
2024-01-18T13:12:46.357Z,4.94
2024-01-18T13:15:13.412Z,5.02
2024-01-18T13:17:42.688Z,5.12
2024-01-18T13:20:12.631Z,5.16
2024-01-18T13:22:40.004Z,5.21
2024-01-18T13:25:07.233Z,5.26
2024-01-18T13:27:34.360Z,5.23
2024-01-18T13:30:01.510Z,5.20
2024-01-18T13:32:28.694Z,5.28
2024-01-18T13:34:55.826Z,5.28
2024-01-18T13:37:30.557Z,5.15
2024-01-18T13:40:01.812Z,5.14
2024-01-18T13:42:28.958Z,5.21
2024-01-18T13:44:56.071Z,5.20
2024-01-18T13:47:23.145Z,5.09
2024-01-18T13:49:51.887Z,5.16
2024-01-18T13:52:21.458Z,5.21
2024-01-18T13:54:48.627Z,5.24
2024-01-18T13:57:15.640Z,5.17
2024-01-18T13:59:42.626Z,5.25
2024-01-18T14:02:09.654Z,5.34
2024-01-18T14:04:37.070Z,5.42
2024-01-18T14:07:04.825Z,5.41
2024-01-18T14:09:34.390Z,5.52
2024-01-18T14:12:01.840Z,5.57
2024-01-18T14:14:28.741Z,5.59
2024-01-18T14:16:58.763Z,5.63
2024-01-18T14:19:25.913Z,5.64
2024-01-18T14:21:53.073Z,5.66
2024-01-18T14:24:20.065Z,5.63
2024-01-18T14:26:47.733Z,5.60
2024-01-18T14:29:14.766Z,5.41
2024-01-18T14:31:42.085Z,5.50
2024-01-18T14:34:09.169Z,5.49
2024-01-18T14:36:36.305Z,5.35
2024-01-18T14:39:05.308Z,5.26
2024-01-18T14:41:33.220Z,5.41
2024-01-18T14:44:00.183Z,5.47
2024-01-18T14:46:27.162Z,5.55
2024-01-18T14:48:54.291Z,5.59
2024-01-18T14:51:21.375Z,5.63
2024-01-18T14:53:48.507Z,5.66
2024-01-18T14:56:15.354Z,5.67
2024-01-18T14:58:44.565Z,5.69
2024-01-18T15:01:11.826Z,5.68
2024-01-18T15:03:39.010Z,5.56
2024-01-18T15:06:08.203Z,5.51
2024-01-18T15:08:35.183Z,5.53
2024-01-18T15:11:02.342Z,5.55
2024-01-18T15:13:29.351Z,5.59
2024-01-18T15:15:56.523Z,5.59
2024-01-18T15:18:23.636Z,5.56
2024-01-18T15:20:50.779Z,5.55
2024-01-18T15:23:17.839Z,5.52
2024-01-18T15:25:44.834Z,5.52
2024-01-18T15:28:12.695Z,5.48
2024-01-18T15:30:39.774Z,5.45
2024-01-18T15:33:06.854Z,5.35
2024-01-18T15:35:33.899Z,5.29
2024-01-18T15:38:00.847Z,5.21
2024-01-18T15:40:27.680Z,5.15
2024-01-18T15:42:54.843Z,5.14
2024-01-18T15:45:22.150Z,5.06
2024-01-18T15:47:49.306Z,5.02
2024-01-18T15:50:16.377Z,4.92
2024-01-18T15:52:45.265Z,4.85
2024-01-18T15:55:12.673Z,4.84
2024-01-18T15:57:39.814Z,4.78
2024-01-18T16:00:09.561Z,4.73
2024-01-18T16:02:36.836Z,4.66
2024-01-18T16:05:07.132Z,4.59
2024-01-18T16:07:35.527Z,4.53
2024-01-18T16:10:05.280Z,4.44
2024-01-18T16:12:32.548Z,4.35
2024-01-18T16:14:59.809Z,4.25
2024-01-18T16:17:26.816Z,4.13
2024-01-18T16:19:53.868Z,4.00
2024-01-18T16:22:20.903Z,3.89
2024-01-18T16:24:47.833Z,3.78
2024-01-18T16:27:14.857Z,3.64
2024-01-18T16:29:54.255Z,3.49
2024-01-18T16:32:28.046Z,3.33
2024-01-18T16:34:55.224Z,3.22
2024-01-18T16:37:22.272Z,3.10
2024-01-18T16:39:50.368Z,2.98
2024-01-18T16:42:17.472Z,2.83
2024-01-18T16:44:44.446Z,2.70
2024-01-18T16:47:11.640Z,2.54
2024-01-18T16:49:38.710Z,2.40
2024-01-18T16:52:05.920Z,2.31
2024-01-18T16:54:32.982Z,2.19
2024-01-18T16:56:59.985Z,2.09
2024-01-18T16:59:26.973Z,1.95
2024-01-18T17:01:54.018Z,1.80
2024-01-18T17:04:21.033Z,1.68
2024-01-18T17:06:48.131Z,1.60
2024-01-18T17:09:15.074Z,1.50
2024-01-18T17:11:42.151Z,1.42
2024-01-18T17:14:09.192Z,1.34
2024-01-18T17:16:36.188Z,1.20
2024-01-18T17:19:04.037Z,1.09
2024-01-18T17:21:31.272Z,0.94
2024-01-18T17:23:58.206Z,0.82
2024-01-18T17:26:26.884Z,0.70
2024-01-18T17:28:54.973Z,0.60
2024-01-18T17:31:23.035Z,0.51
2024-01-18T17:33:50.762Z,0.42
2024-01-18T17:36:17.732Z,0.34
2024-01-18T17:38:44.976Z,0.26
2024-01-18T17:41:12.077Z,0.12
2024-01-18T17:43:38.965Z,0.07
2024-01-18T17:46:07.385Z,-0.02
2024-01-18T17:48:37.337Z,-0.07
2024-01-18T17:51:06.662Z,-0.14
2024-01-18T17:53:34.072Z,-0.20
2024-01-18T17:56:04.518Z,-0.27
2024-01-18T17:58:33.145Z,-0.31
2024-01-18T18:01:00.182Z,-0.36
2024-01-18T18:03:27.765Z,-0.45
2024-01-18T18:05:54.945Z,-0.53
2024-01-18T18:08:22.199Z,-0.59
2024-01-18T18:10:49.302Z,-0.59
2024-01-18T18:13:16.269Z,-0.70
2024-01-18T18:15:47.592Z,-0.70
2024-01-18T18:18:18.142Z,-0.74
2024-01-18T18:20:45.216Z,-0.80
2024-01-18T18:23:12.357Z,-0.93
2024-01-18T18:25:39.374Z,-0.99
2024-01-18T18:28:06.685Z,-1.00
2024-01-18T18:30:36.818Z,-1.05
2024-01-18T18:33:06.884Z,-1.11
2024-01-18T18:35:34.049Z,-1.16
2024-01-18T18:38:01.109Z,-1.21
2024-01-18T18:40:30.597Z,-1.27
2024-01-18T18:42:57.570Z,-1.31
2024-01-18T18:45:24.581Z,-1.39
2024-01-18T18:47:52.983Z,-1.44
2024-01-18T18:50:20.021Z,-1.47
2024-01-18T18:52:47.633Z,-1.49
2024-01-18T18:55:14.757Z,-1.53
2024-01-18T18:57:41.791Z,-1.56
2024-01-18T19:00:09.270Z,-1.58
2024-01-18T19:02:36.398Z,-1.62
2024-01-18T19:05:05.134Z,-1.69
2024-01-18T19:07:32.132Z,-1.74
2024-01-18T19:09:59.075Z,-1.77
2024-01-18T19:12:26.382Z,-1.86
2024-01-18T19:14:53.835Z,-1.88
2024-01-18T19:17:21.018Z,-1.93
2024-01-18T19:19:47.982Z,-1.98
2024-01-18T19:22:15.042Z,-2.02
2024-01-18T19:24:42.064Z,-2.02
2024-01-18T19:27:09.418Z,-2.02
2024-01-18T19:29:36.660Z,-2.01
2024-01-18T19:32:05.116Z,-1.95
2024-01-18T19:34:32.120Z,-1.90
2024-01-18T19:36:59.167Z,-1.84
2024-01-18T19:39:32.236Z,-1.77
2024-01-18T19:42:01.947Z,-1.72
2024-01-18T19:44:28.968Z,-1.70
2024-01-18T19:46:55.946Z,-1.69
2024-01-18T19:49:24.965Z,-1.75
2024-01-18T19:51:51.991Z,-1.84
2024-01-18T19:54:18.975Z,-1.93
2024-01-18T19:56:46.156Z,-2.05
2024-01-18T19:59:13.196Z,-2.12
2024-01-18T20:01:40.144Z,-2.16
2024-01-18T20:04:07.156Z,-2.20
2024-01-18T20:06:34.318Z,-2.22
2024-01-18T20:09:01.318Z,-2.12
2024-01-18T20:11:28.793Z,-2.23
2024-01-18T20:13:55.912Z,-2.23
2024-01-18T20:16:22.977Z,-2.33
2024-01-18T20:18:52.255Z,-2.43
2024-01-18T20:21:19.769Z,-2.47
2024-01-18T20:23:47.026Z,-2.54
2024-01-18T20:26:16.111Z,-2.57
2024-01-18T20:28:43.893Z,-2.62
2024-01-18T20:31:11.346Z,-2.65
2024-01-18T20:33:41.350Z,-2.67
2024-01-18T20:36:08.537Z,-2.71
2024-01-18T20:38:35.568Z,-2.75
2024-01-18T20:41:03.120Z,-2.78
2024-01-18T20:43:30.113Z,-2.87
2024-01-18T20:45:57.311Z,-2.86
2024-01-18T20:48:24.516Z,-2.87
2024-01-18T20:50:51.715Z,-2.83
2024-01-18T20:53:18.799Z,-2.81
2024-01-18T20:55:45.797Z,-2.74
2024-01-18T20:58:12.898Z,-2.70
2024-01-18T21:00:40.772Z,-2.71
2024-01-18T21:03:08.923Z,-2.63
2024-01-18T21:05:35.922Z,-2.66
2024-01-18T21:08:02.946Z,-2.70
2024-01-18T21:10:30.042Z,-2.71
2024-01-18T21:12:57.137Z,-2.65
2024-01-18T21:15:24.227Z,-2.57
2024-01-18T21:17:51.326Z,-2.42
2024-01-18T21:20:18.346Z,-2.43
2024-01-18T21:22:45.433Z,-2.58
2024-01-18T21:25:12.409Z,-2.73
2024-01-18T21:27:39.360Z,-2.84
2024-01-18T21:30:07.086Z,-2.89
2024-01-18T21:32:35.064Z,-2.98
2024-01-18T21:35:02.135Z,-2.89
2024-01-18T21:37:29.242Z,-2.76
2024-01-18T21:39:56.229Z,-2.59
2024-01-18T21:42:23.373Z,-2.53
2024-01-18T21:44:50.666Z,-2.58
2024-01-18T21:47:18.004Z,-2.61
2024-01-18T21:49:45.501Z,-2.70
2024-01-18T21:52:13.263Z,-2.88
2024-01-18T21:54:40.812Z,-2.99
2024-01-18T21:57:08.035Z,-3.11
2024-01-18T21:59:40.057Z,-3.18
2024-01-18T22:02:12.716Z,-3.22
2024-01-18T22:04:40.696Z,-3.32
2024-01-18T22:07:08.520Z,-3.38
2024-01-18T22:09:41.826Z,-3.41
2024-01-18T22:12:10.598Z,-3.35
2024-01-18T22:14:37.658Z,-3.30
2024-01-18T22:17:05.045Z,-3.25
2024-01-18T22:19:43.130Z,-3.22
2024-01-18T22:22:19.410Z,-3.17
2024-01-18T22:24:46.698Z,-3.13
2024-01-18T22:27:15.132Z,-3.15
2024-01-18T22:29:43.106Z,-3.18
2024-01-18T22:32:13.872Z,-3.19
2024-01-18T22:34:42.207Z,-3.15
2024-01-18T22:37:09.153Z,-3.09
2024-01-18T22:39:36.096Z,-3.03
2024-01-18T22:42:03.255Z,-2.97
2024-01-18T22:44:30.219Z,-2.95
2024-01-18T22:46:57.286Z,-2.98
2024-01-18T22:49:24.404Z,-3.30
2024-01-18T22:51:51.540Z,-3.13
2024-01-18T22:54:18.532Z,-3.22
2024-01-18T22:56:46.505Z,-3.28
2024-01-18T22:59:13.684Z,-3.29
2024-01-18T23:01:40.714Z,-3.23
2024-01-18T23:04:07.821Z,-3.20
2024-01-18T23:06:35.858Z,-3.16
2024-01-18T23:09:02.919Z,-3.15
2024-01-18T23:11:29.929Z,-3.16
2024-01-18T23:13:58.848Z,-3.17
2024-01-18T23:16:27.072Z,-3.18
2024-01-18T23:18:54.614Z,-3.21
2024-01-18T23:21:21.836Z,-3.20
2024-01-18T23:23:51.194Z,-3.23
2024-01-18T23:26:19.018Z,-3.23
2024-01-18T23:28:46.121Z,-3.27
2024-01-18T23:31:13.142Z,-3.29
2024-01-18T23:33:40.266Z,-3.24
2024-01-18T23:36:07.576Z,-3.24
2024-01-18T23:38:34.590Z,-3.28
2024-01-18T23:41:01.620Z,-3.26
2024-01-18T23:43:28.634Z,-3.31
2024-01-18T23:45:55.655Z,-3.38
2024-01-18T23:48:22.756Z,-3.43
2024-01-18T23:50:49.966Z,-3.47
2024-01-18T23:53:17.096Z,-3.51
2024-01-18T23:55:44.171Z,-3.57
2024-01-18T23:58:11.173Z,-3.50
